sensor_id;sensor_type;location;lat;lon;timestamp;pressure;altitude;pressure_sealevel;temperature;humidity
65359;BME280;52491;45.900;6.346;2024-01-25T00:00:41;95356.81;;;22.27;32.05
65359;BME280;52491;45.900;6.346;2024-01-25T00:03:07;95359.47;;;22.27;31.99
65359;BME280;52491;45.900;6.346;2024-01-25T00:05:35;95352.50;;;22.26;32.06
65359;BME280;52491;45.900;6.346;2024-01-25T00:08:04;95354.16;;;22.27;31.94
65359;BME280;52491;45.900;6.346;2024-01-25T00:10:32;95345.34;;;22.26;32.08
65359;BME280;52491;45.900;6.346;2024-01-25T00:12:58;95346.59;;;22.24;32.00
65359;BME280;52491;45.900;6.346;2024-01-25T00:15:23;95343.94;;;22.24;32.03
65359;BME280;52491;45.900;6.346;2024-01-25T00:17:51;95337.00;;;22.23;31.89
65359;BME280;52491;45.900;6.346;2024-01-25T00:20:17;95337.22;;;22.21;32.06
65359;BME280;52491;45.900;6.346;2024-01-25T00:22:45;95336.38;;;22.21;32.09
65359;BME280;52491;45.900;6.346;2024-01-25T00:25:11;95328.41;;;22.21;32.06
65359;BME280;52491;45.900;6.346;2024-01-25T00:27:36;95321.47;;;22.20;31.93
65359;BME280;52491;45.900;6.346;2024-01-25T00:30:02;95310.03;;;22.19;32.06
65359;BME280;52491;45.900;6.346;2024-01-25T00:32:30;95307.59;;;22.18;32.10
65359;BME280;52491;45.900;6.346;2024-01-25T00:34:55;95312.91;;;22.18;31.97
65359;BME280;52491;45.900;6.346;2024-01-25T00:37:21;95304.09;;;22.17;32.01
65359;BME280;52491;45.900;6.346;2024-01-25T00:39:47;95303.28;;;22.17;31.85
65359;BME280;52491;45.900;6.346;2024-01-25T00:42:15;95301.44;;;22.17;31.87
65359;BME280;52491;45.900;6.346;2024-01-25T00:44:41;95308.59;;;22.17;32.14
65359;BME280;52491;45.900;6.346;2024-01-25T00:47:07;95302.47;;;22.16;31.86
65359;BME280;52491;45.900;6.346;2024-01-25T00:49:36;95300.63;;;22.17;31.99
65359;BME280;52491;45.900;6.346;2024-01-25T00:52:02;95303.47;;;22.15;31.90
65359;BME280;52491;45.900;6.346;2024-01-25T00:54:29;95300.03;;;22.15;31.83
65359;BME280;52491;45.900;6.346;2024-01-25T00:56:55;95296.56;;;22.14;31.76
65359;BME280;52491;45.900;6.346;2024-01-25T00:59:21;95303.72;;;22.13;31.83
65359;BME280;52491;45.900;6.346;2024-01-25T01:01:52;95293.91;;;22.14;31.83
65359;BME280;52491;45.900;6.346;2024-01-25T01:04:18;95296.78;;;22.12;31.86
65359;BME280;52491;45.900;6.346;2024-01-25T01:06:47;95286.16;;;22.12;31.84
65359;BME280;52491;45.900;6.346;2024-01-25T01:09:16;95286.97;;;22.13;31.72
65359;BME280;52491;45.900;6.346;2024-01-25T01:11:43;95295.38;;;22.10;31.79
65359;BME280;52491;45.900;6.346;2024-01-25T01:14:08;95288.22;;;22.10;31.82
65359;BME280;52491;45.900;6.346;2024-01-25T01:16:37;95291.69;;;22.11;31.83
65359;BME280;52491;45.900;6.346;2024-01-25T01:19:02;95290.25;;;22.08;31.71
65359;BME280;52491;45.900;6.346;2024-01-25T01:21:34;95294.94;;;22.13;31.88
65359;BME280;52491;45.900;6.346;2024-01-25T01:24:04;95291.69;;;22.11;31.65
65359;BME280;52491;45.900;6.346;2024-01-25T01:26:32;95288.22;;;22.10;31.71
65359;BME280;52491;45.900;6.346;2024-01-25T01:29:00;95284.13;;;22.08;31.64
65359;BME280;52491;45.900;6.346;2024-01-25T01:31:25;95283.53;;;22.06;31.68
65359;BME280;52491;45.900;6.346;2024-01-25T01:33:51;95281.69;;;22.06;31.68
65359;BME280;52491;45.900;6.346;2024-01-25T01:36:16;95284.34;;;22.06;31.80
65359;BME280;52491;45.900;6.346;2024-01-25T01:38:42;95284.34;;;22.06;31.79
65359;BME280;52491;45.900;6.346;2024-01-25T01:41:09;95284.13;;;22.08;31.65
65359;BME280;52491;45.900;6.346;2024-01-25T01:43:35;95280.88;;;22.06;31.56
65359;BME280;52491;45.900;6.346;2024-01-25T01:46:06;95282.28;;;22.08;31.66
65359;BME280;52491;45.900;6.346;2024-01-25T01:48:35;95280.06;;;22.05;31.74
65359;BME280;52491;45.900;6.346;2024-01-25T01:51:00;95284.56;;;22.05;31.71
65359;BME280;52491;45.900;6.346;2024-01-25T01:53:26;95277.59;;;22.04;31.79
65359;BME280;52491;45.900;6.346;2024-01-25T01:55:52;95272.09;;;22.05;31.68
65359;BME280;52491;45.900;6.346;2024-01-25T01:58:18;95284.56;;;22.05;31.65
65359;BME280;52491;45.900;6.346;2024-01-25T02:00:46;95281.09;;;22.04;31.68
65359;BME280;52491;45.900;6.346;2024-01-25T02:03:13;95268.63;;;22.05;31.69
65359;BME280;52491;45.900;6.346;2024-01-25T02:05:38;95271.50;;;22.03;31.72
65359;BME280;52491;45.900;6.346;2024-01-25T02:08:04;95271.50;;;22.03;31.69
65359;BME280;52491;45.900;6.346;2024-01-25T02:10:30;95268.84;;;22.03;31.57
65359;BME280;52491;45.900;6.346;2024-01-25T02:12:55;95262.09;;;22.01;31.76
65359;BME280;52491;45.900;6.346;2024-01-25T02:15:21;95262.09;;;22.01;31.63
65359;BME280;52491;45.900;6.346;2024-01-25T02:17:46;95260.25;;;22.01;31.49
65359;BME280;52491;45.900;6.346;2024-01-25T02:20:12;95261.09;;;22.02;31.57
65359;BME280;52491;45.900;6.346;2024-01-25T02:22:38;95264.75;;;22.01;31.56
65359;BME280;52491;45.900;6.346;2024-01-25T02:25:03;95263.13;;;22.00;31.58
65359;BME280;52491;45.900;6.346;2024-01-25T02:27:29;95263.13;;;22.00;31.59
65359;BME280;52491;45.900;6.346;2024-01-25T02:29:54;95266.59;;;22.00;31.53
65359;BME280;52491;45.900;6.346;2024-01-25T02:32:20;95263.94;;;22.00;31.57
65359;BME280;52491;45.900;6.346;2024-01-25T02:34:45;95272.72;;;22.01;31.44
65359;BME280;52491;45.900;6.346;2024-01-25T02:37:11;95265.00;;;21.99;31.54
65359;BME280;52491;45.900;6.346;2024-01-25T02:39:37;95261.53;;;21.99;31.57
65359;BME280;52491;45.900;6.346;2024-01-25T02:42:03;95258.03;;;21.98;31.50
65359;BME280;52491;45.900;6.346;2024-01-25T02:44:29;95258.88;;;21.99;31.44
65359;BME280;52491;45.900;6.346;2024-01-25T02:46:54;95259.69;;;21.99;31.51
65359;BME280;52491;45.900;6.346;2024-01-25T02:49:20;95253.56;;;21.99;31.62
65359;BME280;52491;45.900;6.346;2024-01-25T02:51:45;95251.72;;;21.99;31.52
65359;BME280;52491;45.900;6.346;2024-01-25T02:54:11;95241.28;;;21.98;31.52
65359;BME280;52491;45.900;6.346;2024-01-25T02:56:36;95244.19;;;21.96;31.57
65359;BME280;52491;45.900;6.346;2024-01-25T02:59:02;95232.50;;;21.97;31.42
65359;BME280;52491;45.900;6.346;2024-01-25T03:01:27;95242.31;;;21.97;31.49
65359;BME280;52491;45.900;6.346;2024-01-25T03:03:53;95240.47;;;21.97;31.42
65359;BME280;52491;45.900;6.346;2024-01-25T03:06:19;95243.94;;;21.98;31.43
65359;BME280;52491;45.900;6.346;2024-01-25T03:08:45;95243.13;;;21.97;31.50
65359;BME280;52491;45.900;6.346;2024-01-25T03:11:10;95240.47;;;21.97;31.57
65359;BME280;52491;45.900;6.346;2024-01-25T03:13:36;95244.97;;;21.97;31.36
65359;BME280;52491;45.900;6.346;2024-01-25T03:16:01;95244.19;;;21.96;31.47
65359;BME280;52491;45.900;6.346;2024-01-25T03:18:27;95238.88;;;21.96;31.53
65359;BME280;52491;45.900;6.346;2024-01-25T03:20:53;95252.13;;;21.96;31.51
65359;BME280;52491;45.900;6.346;2024-01-25T03:23:18;95243.34;;;21.96;31.45
65359;BME280;52491;45.900;6.346;2024-01-25T03:25:44;95236.41;;;21.95;31.69
65359;BME280;52491;45.900;6.346;2024-01-25T03:28:09;95243.34;;;21.96;31.54
65359;BME280;52491;45.900;6.346;2024-01-25T03:30:36;95224.75;;;21.96;31.43
65359;BME280;52491;45.900;6.346;2024-01-25T03:33:02;95222.94;;;21.96;31.30
65359;BME280;52491;45.900;6.346;2024-01-25T03:35:27;95227.41;;;21.96;31.46
65359;BME280;52491;45.900;6.346;2024-01-25T03:37:53;95218.06;;;21.93;31.46
65359;BME280;52491;45.900;6.346;2024-01-25T03:40:18;95221.72;;;21.92;31.54
65359;BME280;52491;45.900;6.346;2024-01-25T03:42:44;95227.63;;;21.94;31.44
65359;BME280;52491;45.900;6.346;2024-01-25T03:45:09;95226.03;;;21.93;31.44
65359;BME280;52491;45.900;6.346;2024-01-25T03:47:35;95221.50;;;21.94;31.52
65359;BME280;52491;45.900;6.346;2024-01-25T03:50:00;95220.72;;;21.93;31.40
65359;BME280;52491;45.900;6.346;2024-01-25T03:52:26;95224.97;;;21.94;31.41
65359;BME280;52491;45.900;6.346;2024-01-25T03:54:55;95225.78;;;21.95;31.30
65359;BME280;52491;45.900;6.346;2024-01-25T03:57:20;95215.16;;;21.95;31.54
65359;BME280;52491;45.900;6.346;2024-01-25T03:59:46;95220.28;;;21.96;31.48
65359;BME280;52491;45.900;6.346;2024-01-25T04:02:11;95219.44;;;21.96;31.34
65359;BME280;52491;45.900;6.346;2024-01-25T04:04:37;95217.63;;;21.96;31.41
65359;BME280;52491;45.900;6.346;2024-01-25T04:07:03;95216.78;;;21.96;31.20
65359;BME280;52491;45.900;6.346;2024-01-25T04:09:28;95213.31;;;21.95;31.41
65359;BME280;52491;45.900;6.346;2024-01-25T04:11:56;95208.25;;;21.94;31.40
65359;BME280;52491;45.900;6.346;2024-01-25T04:14:21;95221.72;;;21.92;31.32
65359;BME280;52491;45.900;6.346;2024-01-25T04:16:47;95217.22;;;21.93;31.47
65359;BME280;52491;45.900;6.346;2024-01-25T04:19:12;95221.72;;;21.92;31.04
65359;BME280;52491;45.900;6.346;2024-01-25T04:21:38;95218.25;;;21.92;31.42
65359;BME280;52491;45.900;6.346;2024-01-25T04:24:04;95218.25;;;21.92;31.37
65359;BME280;52491;45.900;6.346;2024-01-25T04:26:29;95220.09;;;21.91;31.50
65359;BME280;52491;45.900;6.346;2024-01-25T04:28:55;95218.44;;;21.90;31.49
65359;BME280;52491;45.900;6.346;2024-01-25T04:31:20;95228.88;;;21.92;31.36
65359;BME280;52491;45.900;6.346;2024-01-25T04:33:46;95223.56;;;21.92;31.43
65359;BME280;52491;45.900;6.346;2024-01-25T04:36:11;95217.44;;;21.91;31.49
65359;BME280;52491;45.900;6.346;2024-01-25T04:38:37;95215.41;;;21.93;31.31
65359;BME280;52491;45.900;6.346;2024-01-25T04:41:02;95217.44;;;21.91;31.30
65359;BME280;52491;45.900;6.346;2024-01-25T04:43:28;95208.69;;;21.90;31.44
65359;BME280;52491;45.900;6.346;2024-01-25T04:45:53;95217.44;;;21.91;31.42
65359;BME280;52491;45.900;6.346;2024-01-25T04:48:19;95212.34;;;21.89;31.42
65359;BME280;52491;45.900;6.346;2024-01-25T04:50:44;95208.88;;;21.89;31.44
65359;BME280;52491;45.900;6.346;2024-01-25T04:53:10;95210.50;;;21.90;31.36
65359;BME280;52491;45.900;6.346;2024-01-25T04:55:35;95200.91;;;21.89;31.27
65359;BME280;52491;45.900;6.346;2024-01-25T04:58:01;95204.38;;;21.89;31.49
65359;BME280;52491;45.900;6.346;2024-01-25T05:00:26;95209.69;;;21.89;31.44
65359;BME280;52491;45.900;6.346;2024-01-25T05:02:52;95209.47;;;21.91;31.36
65359;BME280;52491;45.900;6.346;2024-01-25T05:05:17;95204.16;;;21.91;31.33
65359;BME280;52491;45.900;6.346;2024-01-25T05:07:43;95208.44;;;21.92;31.32
65359;BME280;52491;45.900;6.346;2024-01-25T05:10:09;95207.84;;;21.90;31.47
65359;BME280;52491;45.900;6.346;2024-01-25T05:12:34;95206.00;;;21.90;31.42
65359;BME280;52491;45.900;6.346;2024-01-25T05:15:00;95206.81;;;21.91;31.35
65359;BME280;52491;45.900;6.346;2024-01-25T05:17:25;95201.50;;;21.91;31.50
65359;BME280;52491;45.900;6.346;2024-01-25T05:19:51;95210.09;;;21.93;31.47
65359;BME280;52491;45.900;6.346;2024-01-25T05:22:16;95201.28;;;21.93;31.52
65359;BME280;52491;45.900;6.346;2024-01-25T05:24:42;95194.16;;;21.93;31.43
65359;BME280;52491;45.900;6.346;2024-01-25T05:27:08;95211.72;;;21.94;31.54
65359;BME280;52491;45.900;6.346;2024-01-25T05:29:33;95201.28;;;21.93;31.58
65359;BME280;52491;45.900;6.346;2024-01-25T05:31:59;95207.44;;;21.93;31.42
65359;BME280;52491;45.900;6.346;2024-01-25T05:34:24;95205.34;;;21.95;31.41
65359;BME280;52491;45.900;6.346;2024-01-25T05:36:50;95205.16;;;21.97;31.53
65359;BME280;52491;45.900;6.346;2024-01-25T05:39:15;95204.34;;;21.96;31.69
65359;BME280;52491;45.900;6.346;2024-01-25T05:41:42;95209.66;;;21.96;32.00
65359;BME280;52491;45.900;6.346;2024-01-25T05:44:11;95209.66;;;21.96;31.86
65359;BME280;52491;45.900;6.346;2024-01-25T05:46:36;95203.50;;;21.96;31.91
65359;BME280;52491;45.900;6.346;2024-01-25T05:49:02;95205.34;;;21.95;31.89
65359;BME280;52491;45.900;6.346;2024-01-25T05:51:27;95207.19;;;21.95;31.98
65359;BME280;52491;45.900;6.346;2024-01-25T05:53:53;95207.44;;;21.93;32.04
65359;BME280;52491;45.900;6.346;2024-01-25T05:56:18;95206.59;;;21.93;32.21
65359;BME280;52491;45.900;6.346;2024-01-25T05:58:44;95202.94;;;21.94;32.32
65359;BME280;52491;45.900;6.346;2024-01-25T06:01:09;95204.97;;;21.92;32.07
65359;BME280;52491;45.900;6.346;2024-01-25T06:03:35;95206.41;;;21.94;32.20
65359;BME280;52491;45.900;6.346;2024-01-25T06:06:00;95199.84;;;21.97;32.20
65359;BME280;52491;45.900;6.346;2024-01-25T06:08:26;95194.31;;;21.98;32.36
65359;BME280;52491;45.900;6.346;2024-01-25T06:10:52;95204.91;;;21.98;32.42
65359;BME280;52491;45.900;6.346;2024-01-25T06:13:17;95196.38;;;21.96;32.40
65359;BME280;52491;45.900;6.346;2024-01-25T06:15:43;95196.97;;;21.98;32.40
65359;BME280;52491;45.900;6.346;2024-01-25T06:18:08;95195.13;;;21.99;32.37
65359;BME280;52491;45.900;6.346;2024-01-25T06:20:34;95204.13;;;21.98;32.57
65359;BME280;52491;45.900;6.346;2024-01-25T06:22:59;95194.31;;;21.98;32.66
65359;BME280;52491;45.900;6.346;2024-01-25T06:25:25;95198.00;;;21.97;32.62
65359;BME280;52491;45.900;6.346;2024-01-25T06:27:52;95202.69;;;21.95;32.49
65359;BME280;52491;45.900;6.346;2024-01-25T06:30:17;95204.53;;;21.95;32.35
65359;BME280;52491;45.900;6.346;2024-01-25T06:32:45;95214.34;;;21.94;32.21
65359;BME280;52491;45.900;6.346;2024-01-25T06:35:11;95212.13;;;21.91;32.41
65359;BME280;52491;45.900;6.346;2024-01-25T06:37:36;95204.97;;;21.92;32.35
65359;BME280;52491;45.900;6.346;2024-01-25T06:40:02;95208.00;;;21.95;32.49
65359;BME280;52491;45.900;6.346;2024-01-25T06:42:27;95198.81;;;21.98;32.25
65359;BME280;52491;45.900;6.346;2024-01-25T06:44:53;95202.25;;;21.98;32.26
65359;BME280;52491;45.900;6.346;2024-01-25T06:47:18;95201.47;;;21.98;32.25
65359;BME280;52491;45.900;6.346;2024-01-25T06:49:44;95211.06;;;21.99;32.29
65359;BME280;52491;45.900;6.346;2024-01-25T06:52:13;95201.47;;;21.98;32.31
65359;BME280;52491;45.900;6.346;2024-01-25T06:54:38;95209.44;;;21.98;32.23
65359;BME280;52491;45.900;6.346;2024-01-25T06:57:04;95206.78;;;21.98;32.35
65359;BME280;52491;45.900;6.346;2024-01-25T06:59:29;95196.97;;;21.98;32.33
65359;BME280;52491;45.900;6.346;2024-01-25T07:01:55;95215.53;;;21.98;32.37
65359;BME280;52491;45.900;6.346;2024-01-25T07:04:20;95212.88;;;21.98;32.13
65359;BME280;52491;45.900;6.346;2024-01-25T07:06:46;95215.34;;;22.00;32.16
65359;BME280;52491;45.900;6.346;2024-01-25T07:09:12;95216.97;;;22.01;32.37
65359;BME280;52491;45.900;6.346;2024-01-25T07:11:37;95216.16;;;22.00;32.21
65359;BME280;52491;45.900;6.346;2024-01-25T07:14:03;95211.88;;;21.99;32.20
65359;BME280;52491;45.900;6.346;2024-01-25T07:16:28;95216.16;;;22.00;32.28
65359;BME280;52491;45.900;6.346;2024-01-25T07:18:55;95226.34;;;22.03;32.36
65359;BME280;52491;45.900;6.346;2024-01-25T07:21:21;95226.56;;;22.02;32.22
65359;BME280;52491;45.900;6.346;2024-01-25T07:23:46;95219.84;;;21.99;32.36
65359;BME280;52491;45.900;6.346;2024-01-25T07:26:17;95223.31;;;22.00;32.17
65359;BME280;52491;45.900;6.346;2024-01-25T07:28:43;95220.84;;;21.98;32.20
65359;BME280;52491;45.900;6.346;2024-01-25T07:31:08;95221.91;;;21.97;32.31
65359;BME280;52491;45.900;6.346;2024-01-25T07:33:35;95215.53;;;21.98;32.20
65359;BME280;52491;45.900;6.346;2024-01-25T07:36:01;95224.56;;;21.97;32.05
65359;BME280;52491;45.900;6.346;2024-01-25T07:38:26;95222.94;;;21.96;32.09
65359;BME280;52491;45.900;6.346;2024-01-25T07:40:52;95217.63;;;21.96;32.08
65359;BME280;52491;45.900;6.346;2024-01-25T07:43:17;95222.09;;;21.96;32.10
65359;BME280;52491;45.900;6.346;2024-01-25T07:45:43;95227.41;;;21.96;32.16
65359;BME280;52491;45.900;6.346;2024-01-25T07:48:08;95222.31;;;21.94;32.10
65359;BME280;52491;45.900;6.346;2024-01-25T07:50:34;95223.94;;;21.95;32.18
65359;BME280;52491;45.900;6.346;2024-01-25T07:52:59;95223.38;;;21.93;32.04
65359;BME280;52491;45.900;6.346;2024-01-25T07:55:26;95227.63;;;21.94;32.03
65359;BME280;52491;45.900;6.346;2024-01-25T07:57:52;95237.44;;;21.94;32.08
65359;BME280;52491;45.900;6.346;2024-01-25T08:00:17;95228.69;;;21.93;31.90
65359;BME280;52491;45.900;6.346;2024-01-25T08:02:43;95232.34;;;21.92;32.00
65359;BME280;52491;45.900;6.346;2024-01-25T08:05:10;95230.50;;;21.93;32.05
65359;BME280;52491;45.900;6.346;2024-01-25T08:07:36;95236.84;;;21.92;32.06
65359;BME280;52491;45.900;6.346;2024-01-25T08:10:03;95232.13;;;21.94;31.95
65359;BME280;52491;45.900;6.346;2024-01-25T08:12:29;95239.28;;;21.93;31.82
65359;BME280;52491;45.900;6.346;2024-01-25T08:14:55;95229.06;;;21.90;31.87
65359;BME280;52491;45.900;6.346;2024-01-25T08:17:20;95236.03;;;21.91;31.77
65359;BME280;52491;45.900;6.346;2024-01-25T08:19:46;95233.38;;;21.91;31.94
65359;BME280;52491;45.900;6.346;2024-01-25T08:22:12;95229.91;;;21.90;31.83
65359;BME280;52491;45.900;6.346;2024-01-25T08:24:39;95231.53;;;21.92;32.02
65359;BME280;52491;45.900;6.346;2024-01-25T08:27:04;95233.38;;;21.91;31.85
65359;BME280;52491;45.900;6.346;2024-01-25T08:29:30;95225.59;;;21.89;31.84
65359;BME280;52491;45.900;6.346;2024-01-25T08:31:55;95221.34;;;21.88;31.80
65359;BME280;52491;45.900;6.346;2024-01-25T08:34:21;95214.19;;;21.89;31.74
65359;BME280;52491;45.900;6.346;2024-01-25T08:36:46;95210.72;;;21.88;31.78
65359;BME280;52491;45.900;6.346;2024-01-25T08:39:12;95215.22;;;21.88;31.86
65359;BME280;52491;45.900;6.346;2024-01-25T08:41:38;95205.41;;;21.88;31.72
65359;BME280;52491;45.900;6.346;2024-01-25T08:44:03;95209.91;;;21.88;31.88
65359;BME280;52491;45.900;6.346;2024-01-25T08:46:29;95211.97;;;21.86;31.69
65359;BME280;52491;45.900;6.346;2024-01-25T08:48:54;95204.81;;;21.86;31.64
65359;BME280;52491;45.900;6.346;2024-01-25T08:51:20;95208.25;;;21.87;31.74
65359;BME280;52491;45.900;6.346;2024-01-25T08:53:45;95199.50;;;21.86;31.72
65359;BME280;52491;45.900;6.346;2024-01-25T08:56:11;95201.34;;;21.86;31.62
65359;BME280;52491;45.900;6.346;2024-01-25T08:58:36;95197.88;;;21.85;31.61
65359;BME280;52491;45.900;6.346;2024-01-25T09:01:02;95195.22;;;21.85;31.64
65359;BME280;52491;45.900;6.346;2024-01-25T09:03:27;95189.91;;;21.85;31.62
65359;BME280;52491;45.900;6.346;2024-01-25T09:05:53;95189.09;;;21.85;31.61
65359;BME280;52491;45.900;6.346;2024-01-25T09:08:18;95184.81;;;21.84;31.73
65359;BME280;52491;45.900;6.346;2024-01-25T09:10:44;95178.69;;;21.83;31.49
65359;BME280;52491;45.900;6.346;2024-01-25T09:13:10;95176.84;;;21.84;31.72
65359;BME280;52491;45.900;6.346;2024-01-25T09:15:36;95172.34;;;21.84;31.49
65359;BME280;52491;45.900;6.346;2024-01-25T09:18:02;95169.69;;;21.84;31.50
65359;BME280;52491;45.900;6.346;2024-01-25T09:20:28;95170.72;;;21.83;31.61
65359;BME280;52491;45.900;6.346;2024-01-25T09:22:53;95168.88;;;21.84;31.56
65359;BME280;52491;45.900;6.346;2024-01-25T09:25:22;95166.03;;;21.85;31.63
65359;BME280;52491;45.900;6.346;2024-01-25T09:27:48;95165.78;;;21.87;31.61
65359;BME280;52491;45.900;6.346;2024-01-25T09:30:14;95155.78;;;21.89;31.53
65359;BME280;52491;45.900;6.346;2024-01-25T09:32:40;95159.03;;;21.91;31.41
65359;BME280;52491;45.900;6.346;2024-01-25T09:35:06;95153.50;;;21.93;31.44
65359;BME280;52491;45.900;6.346;2024-01-25T09:37:31;95154.72;;;21.97;31.47
65359;BME280;52491;45.900;6.346;2024-01-25T09:39:57;95150.81;;;21.99;31.31
65359;BME280;52491;45.900;6.346;2024-01-25T09:42:24;95150.38;;;22.02;31.39
65359;BME280;52491;45.900;6.346;2024-01-25T09:44:51;95156.06;;;22.06;31.43
65359;BME280;52491;45.900;6.346;2024-01-25T09:47:17;95145.00;;;22.09;31.60
65359;BME280;52491;45.900;6.346;2024-01-25T09:49:44;95144.78;;;22.10;31.33
65359;BME280;52491;45.900;6.346;2024-01-25T09:52:12;95142.50;;;22.14;31.45
65359;BME280;52491;45.900;6.346;2024-01-25T09:54:38;95141.25;;;22.17;31.35
65359;BME280;52491;45.900;6.346;2024-01-25T09:57:10;95131.03;;;22.20;31.09
65359;BME280;52491;45.900;6.346;2024-01-25T09:59:38;95132.69;;;22.21;31.32
65359;BME280;52491;45.900;6.346;2024-01-25T10:02:04;95129.59;;;22.24;31.33
65359;BME280;52491;45.900;6.346;2024-01-25T10:04:30;95130.16;;;22.26;31.32
65359;BME280;52491;45.900;6.346;2024-01-25T10:06:56;95128.91;;;22.29;31.18
65359;BME280;52491;45.900;6.346;2024-01-25T10:09:22;95126.06;;;22.30;31.42
65359;BME280;52491;45.900;6.346;2024-01-25T10:11:48;95127.03;;;22.36;31.33
65359;BME280;52491;45.900;6.346;2024-01-25T10:14:13;95117.81;;;22.39;31.17
65359;BME280;52491;45.900;6.346;2024-01-25T10:16:39;95114.47;;;22.43;31.01
65359;BME280;52491;45.900;6.346;2024-01-25T10:19:06;95116.47;;;22.48;31.03
65359;BME280;52491;45.900;6.346;2024-01-25T10:21:34;95115.22;;;22.50;31.14
65359;BME280;52491;45.900;6.346;2024-01-25T10:24:00;95115.81;;;22.52;31.05
65359;BME280;52491;45.900;6.346;2024-01-25T10:26:26;95110.88;;;22.56;31.12
65359;BME280;52491;45.900;6.346;2024-01-25T10:28:54;95106.16;;;22.58;31.04
65359;BME280;52491;45.900;6.346;2024-01-25T10:31:23;95101.00;;;22.63;30.97
65359;BME280;52491;45.900;6.346;2024-01-25T10:33:52;95096.03;;;22.67;30.99
65359;BME280;52491;45.900;6.346;2024-01-25T10:36:20;95103.56;;;22.70;30.83
65359;BME280;52491;45.900;6.346;2024-01-25T10:38:48;95094.34;;;22.72;30.81
65359;BME280;52491;45.900;6.346;2024-01-25T10:41:14;95099.00;;;22.77;30.87
65359;BME280;52491;45.900;6.346;2024-01-25T10:43:40;95089.75;;;22.79;30.74
65359;BME280;52491;45.900;6.346;2024-01-25T10:46:07;95085.81;;;22.82;30.78
65359;BME280;52491;45.900;6.346;2024-01-25T10:48:34;95084.38;;;22.86;30.75
65359;BME280;52491;45.900;6.346;2024-01-25T10:51:01;95071.66;;;22.88;30.93
65359;BME280;52491;45.900;6.346;2024-01-25T10:53:31;95075.28;;;22.94;30.67
65359;BME280;52491;45.900;6.346;2024-01-25T10:55:57;95068.91;;;22.95;30.67
65359;BME280;52491;45.900;6.346;2024-01-25T10:58:23;95065.84;;;22.98;30.62
65359;BME280;52491;45.900;6.346;2024-01-25T11:00:52;95056.13;;;23.04;30.66
65359;BME280;52491;45.900;6.346;2024-01-25T11:03:25;95058.34;;;23.07;30.70
65359;BME280;52491;45.900;6.346;2024-01-25T11:05:52;95058.13;;;23.08;30.55
65359;BME280;52491;45.900;6.346;2024-01-25T11:08:19;95056.63;;;23.12;30.45
65359;BME280;52491;45.900;6.346;2024-01-25T11:10:50;95056.97;;;23.16;30.41
65359;BME280;52491;45.900;6.346;2024-01-25T11:13:24;95047.75;;;23.18;30.43
65359;BME280;52491;45.900;6.346;2024-01-25T11:15:50;95049.38;;;23.19;30.15
65359;BME280;52491;45.900;6.346;2024-01-25T11:18:16;95053.19;;;23.23;30.15
65359;BME280;52491;45.900;6.346;2024-01-25T11:20:41;95052.75;;;23.27;30.19
65359;BME280;52491;45.900;6.346;2024-01-25T11:23:07;95044.56;;;23.28;30.06
65359;BME280;52491;45.900;6.346;2024-01-25T11:25:35;95045.94;;;23.31;30.39
65359;BME280;52491;45.900;6.346;2024-01-25T11:28:03;95049.19;;;23.33;30.30
65359;BME280;52491;45.900;6.346;2024-01-25T11:30:32;95039.94;;;23.35;30.23
65359;BME280;52491;45.900;6.346;2024-01-25T11:32:57;95038.09;;;23.36;30.26
65359;BME280;52491;45.900;6.346;2024-01-25T11:35:23;95030.94;;;23.36;30.38
65359;BME280;52491;45.900;6.346;2024-01-25T11:37:50;95030.47;;;23.39;30.58
65359;BME280;52491;45.900;6.346;2024-01-25T11:40:19;95024.69;;;23.42;30.64
65359;BME280;52491;45.900;6.346;2024-01-25T11:42:47;95024.44;;;23.44;30.49
65359;BME280;52491;45.900;6.346;2024-01-25T11:45:13;95025.03;;;23.46;30.52
65359;BME280;52491;45.900;6.346;2024-01-25T11:47:40;95011.72;;;23.46;30.65
65359;BME280;52491;45.900;6.346;2024-01-25T11:50:08;95014.16;;;23.48;30.85
65359;BME280;52491;45.900;6.346;2024-01-25T11:52:34;95021.09;;;23.49;30.98
65359;BME280;52491;45.900;6.346;2024-01-25T11:55:07;95014.38;;;23.46;30.83
65359;BME280;52491;45.900;6.346;2024-01-25T11:57:40;95005.94;;;23.37;31.35
65359;BME280;52491;45.900;6.346;2024-01-25T12:00:18;95007.91;;;23.42;31.29
65359;BME280;52491;45.900;6.346;2024-01-25T12:02:44;94995.16;;;23.44;31.38
65359;BME280;52491;45.900;6.346;2024-01-25T12:05:10;95000.88;;;23.48;31.35
65359;BME280;52491;45.900;6.346;2024-01-25T12:07:39;94996.09;;;23.50;31.52
65359;BME280;52491;45.900;6.346;2024-01-25T12:10:06;94993.22;;;23.51;31.43
65359;BME280;52491;45.900;6.346;2024-01-25T12:12:32;94990.34;;;23.53;31.57
65359;BME280;52491;45.900;6.346;2024-01-25T12:15:02;94986.84;;;23.52;31.60
65359;BME280;52491;45.900;6.346;2024-01-25T12:17:30;94987.44;;;23.54;31.72
65359;BME280;52491;45.900;6.346;2024-01-25T12:19:57;94990.09;;;23.54;31.67
65359;BME280;52491;45.900;6.346;2024-01-25T12:22:23;94980.25;;;23.55;31.69
65359;BME280;52491;45.900;6.346;2024-01-25T12:24:52;94985.56;;;23.55;31.87
65359;BME280;52491;45.900;6.346;2024-01-25T12:27:20;94978.66;;;23.54;31.86
65359;BME280;52491;45.900;6.346;2024-01-25T12:29:46;94983.72;;;23.55;32.04
65359;BME280;52491;45.900;6.346;2024-01-25T12:32:11;94983.72;;;23.55;32.07
65359;BME280;52491;45.900;6.346;2024-01-25T12:34:37;94985.13;;;23.58;32.24
65359;BME280;52491;45.900;6.346;2024-01-25T12:37:04;94974.47;;;23.58;31.99
65359;BME280;52491;45.900;6.346;2024-01-25T12:39:30;94976.09;;;23.59;32.11
65359;BME280;52491;45.900;6.346;2024-01-25T12:41:55;94970.19;;;23.57;32.31
65359;BME280;52491;45.900;6.346;2024-01-25T12:44:21;94973.66;;;23.57;32.50
65359;BME280;52491;45.900;6.346;2024-01-25T12:46:46;94974.47;;;23.58;32.25
65359;BME280;52491;45.900;6.346;2024-01-25T12:49:12;94973.44;;;23.59;32.39
65359;BME280;52491;45.900;6.346;2024-01-25T12:51:37;94964.66;;;23.58;32.33
65359;BME280;52491;45.900;6.346;2024-01-25T12:54:03;94963.59;;;23.59;32.53